Time;durP1;ratioP1;P1;durP2;ratioP2;P2;SDS_P1;SDS_P2;PMS_P1;PMS_P2;Temp;Humidity;BMP_temperature;BMP_pressure;BME280_temperature;BME280_humidity;BME280_pressure;Samples;Min_cycle;Max_cycle;Signal;HPM_P1;HPM_P2
2023/03/08 00:01:27;;;;;;;21.75;11.43;;;;;;;3.41;78.26;98331.13;5135783;27;20027;-78
2023/03/08 00:03:56;;;;;;;15.68;9.40;;;;;;;3.36;77.88;98324.63;5135737;27;20551;-78
2023/03/08 00:06:21;;;;;;;16.10;10.43;;;;;;;3.44;78.23;98333.34;5139242;27;20034;-78
2023/03/08 00:08:48;;;;;;;21.33;11.50;;;;;;;3.44;78.28;98325.25;5137200;27;20030;-78
2023/03/08 00:11:13;;;;;;;18.75;11.48;;;;;;;3.55;77.60;98334.25;5138277;27;20110;-78
2023/03/08 00:13:39;;;;;;;17.88;10.82;;;;;;;3.57;77.64;98326.72;5139690;27;20102;-78
2023/03/08 00:16:09;;;;;;;20.05;10.93;;;;;;;3.56;77.48;98331.28;5139749;27;20249;-77
2023/03/08 00:18:35;;;;;;;33.08;13.02;;;;;;;3.44;77.74;98336.03;5135668;27;20029;-78
2023/03/08 00:21:15;;;;;;;18.00;9.23;;;;;;;3.46;78.03;98328.47;5139372;27;20486;-78
2023/03/08 00:23:41;;;;;;;17.73;9.63;;;;;;;3.47;77.97;98325.56;5137750;27;20022;-77
2023/03/08 00:26:07;;;;;;;17.50;10.23;;;;;;;3.49;77.82;98334.19;5138607;27;20087;-78
2023/03/08 00:28:32;;;;;;;15.25;8.95;;;;;;;3.52;77.49;98338.25;5137437;27;20082;-78
2023/03/08 00:31:06;;;;;;;18.38;10.82;;;;;;;3.41;77.71;98331.94;5138979;27;20034;-78
2023/03/08 00:33:32;;;;;;;22.13;10.75;;;;;;;3.42;77.89;98330.88;5137522;27;20030;-78
2023/03/08 00:36:00;;;;;;;21.60;10.07;;;;;;;3.42;77.46;98328.19;5138269;27;20627;-78
2023/03/08 00:38:26;;;;;;;15.32;9.57;;;;;;;3.49;77.99;98322.59;5136706;27;20023;-78
2023/03/08 00:40:52;;;;;;;22.45;9.02;;;;;;;3.53;77.33;98321.03;5139290;27;20030;-77
2023/03/08 00:43:17;;;;;;;20.33;10.95;;;;;;;3.59;77.57;98317.31;5138566;27;20026;-78
2023/03/08 00:45:43;;;;;;;23.63;12.48;;;;;;;3.59;77.26;98324.59;5138509;27;20402;-78
2023/03/08 00:48:08;;;;;;;18.17;10.63;;;;;;;3.60;77.69;98328.94;5137317;27;20464;-78
2023/03/08 00:50:33;;;;;;;23.02;12.18;;;;;;;3.59;78.01;98332.66;5137488;27;20023;-78
2023/03/08 00:52:58;;;;;;;19.27;11.07;;;;;;;3.54;76.82;98335.31;5138570;27;20449;-78
2023/03/08 00:55:24;;;;;;;16.03;9.90;;;;;;;3.54;77.38;98322.63;5139696;27;20371;-78
2023/03/08 00:57:49;;;;;;;21.20;12.77;;;;;;;3.57;78.09;98318.63;5138791;27;20282;-78
2023/03/08 01:00:15;;;;;;;19.10;11.53;;;;;;;3.54;77.88;98328.03;5139425;27;20489;-78
2023/03/08 01:02:40;;;;;;;16.40;11.45;;;;;;;3.58;77.78;98323.75;5137731;27;20279;-78
2023/03/08 01:05:08;;;;;;;18.45;10.45;;;;;;;3.57;77.16;98321.34;5139223;27;20069;-78
2023/03/08 01:07:34;;;;;;;19.58;10.77;;;;;;;3.50;77.71;98324.22;5138024;27;20027;-78
2023/03/08 01:09:59;;;;;;;18.52;10.65;;;;;;;3.50;78.08;98313.44;5137675;27;20054;-77
2023/03/08 01:12:24;;;;;;;18.15;10.73;;;;;;;3.50;78.25;98308.03;5138123;27;20483;-78
2023/03/08 01:14:52;;;;;;;21.95;11.27;;;;;;;3.53;78.04;98310.25;5139136;27;20029;-78
2023/03/08 01:17:17;;;;;;;25.52;12.68;;;;;;;3.48;77.75;98312.88;5138910;27;20035;-80
2023/03/08 01:19:43;;;;;;;23.25;12.13;;;;;;;3.47;78.26;98308.56;5139688;27;20047;-79
2023/03/08 01:22:08;;;;;;;16.77;9.25;;;;;;;3.49;78.01;98306.44;5138945;27;20479;-78
2023/03/08 01:24:33;;;;;;;20.20;11.80;;;;;;;3.53;77.74;98295.94;5139629;27;20543;-78
2023/03/08 01:26:59;;;;;;;20.67;11.35;;;;;;;3.53;78.08;98302.16;5139271;27;20395;-78
2023/03/08 01:29:25;;;;;;;17.65;10.68;;;;;;;3.57;78.05;98297.06;5139062;27;20118;-78
2023/03/08 01:31:51;;;;;;;20.98;11.85;;;;;;;3.51;77.75;98293.53;5142088;27;20037;-78
2023/03/08 01:34:16;;;;;;;20.02;11.15;;;;;;;3.48;77.57;98294.00;5143310;27;20031;-78
2023/03/08 01:36:42;;;;;;;21.42;12.90;;;;;;;3.48;77.98;98284.06;5143390;27;20090;-78
2023/03/08 01:39:07;;;;;;;18.17;11.30;;;;;;;3.44;77.82;98277.53;5142341;27;20046;-78
2023/03/08 01:41:32;;;;;;;19.63;11.47;;;;;;;3.43;78.01;98275.09;5142315;27;20260;-78
2023/03/08 01:43:58;;;;;;;18.88;8.75;;;;;;;3.49;77.92;98284.88;5142772;27;20748;-78
2023/03/08 01:46:34;;;;;;;16.55;9.20;;;;;;;3.50;78.14;98283.78;5143149;27;20084;-79
2023/03/08 01:49:18;;;;;;;20.20;11.07;;;;;;;3.41;78.24;98277.25;5141730;27;20115;-79
2023/03/08 01:51:59;;;;;;;24.85;11.18;;;;;;;3.49;77.86;98274.09;5142716;27;20576;-78
2023/03/08 01:54:28;;;;;;;16.33;9.35;;;;;;;3.54;78.09;98268.75;5142223;27;20506;-78
2023/03/08 01:57:00;;;;;;;19.92;10.60;;;;;;;3.46;78.18;98261.13;5142110;27;20082;-77
2023/03/08 01:59:26;;;;;;;20.17;10.50;;;;;;;3.49;78.08;98266.00;5141741;27;20037;-78
2023/03/08 02:02:29;;;;;;;18.20;10.60;;;;;;;3.55;77.32;98256.09;5141434;27;20030;-77
2023/03/08 02:04:54;;;;;;;20.15;12.52;;;;;;;3.46;77.90;98258.41;5142497;27;20403;-78
2023/03/08 02:07:19;;;;;;;22.88;11.55;;;;;;;3.47;78.23;98260.06;5141919;27;20035;-78
2023/03/08 02:09:46;;;;;;;18.65;11.63;;;;;;;3.42;78.25;98247.34;5141572;27;20054;-77
2023/03/08 02:12:12;;;;;;;21.63;10.15;;;;;;;3.41;78.65;98244.91;5140747;27;20469;-78
2023/03/08 02:14:41;;;;;;;17.73;9.98;;;;;;;3.40;78.45;98237.91;5143144;27;20031;-78
2023/03/08 02:17:06;;;;;;;19.08;10.73;;;;;;;3.44;77.81;98245.22;5141477;27;20076;-78
2023/03/08 02:19:45;;;;;;;19.73;11.32;;;;;;;3.42;77.72;98238.47;5141508;27;20023;-77
2023/03/08 02:22:12;;;;;;;18.33;11.20;;;;;;;3.45;78.58;98224.47;5140674;27;20027;-78
2023/03/08 02:24:37;;;;;;;16.77;9.88;;;;;;;3.46;77.81;98213.44;5140943;27;20031;-78
2023/03/08 02:27:12;;;;;;;23.38;12.60;;;;;;;3.40;77.81;98216.34;5143757;27;20550;-77
2023/03/08 02:29:37;;;;;;;21.65;10.63;;;;;;;3.44;78.23;98220.16;5142833;27;20159;-78
2023/03/08 02:32:03;;;;;;;13.77;9.30;;;;;;;3.46;77.69;98209.91;5141832;27;20034;-77
2023/03/08 02:34:28;;;;;;;19.20;11.35;;;;;;;3.44;77.96;98204.78;5140944;27;20035;-77
2023/03/08 02:36:53;;;;;;;19.00;10.25;;;;;;;3.50;77.43;98211.03;5143368;27;20035;-78
2023/03/08 02:39:19;;;;;;;15.57;10.50;;;;;;;3.46;77.33;98209.91;5141983;27;20507;-78
2023/03/08 02:41:44;;;;;;;16.55;9.05;;;;;;;3.48;78.11;98215.84;5140892;27;20483;-77
2023/03/08 02:44:09;;;;;;;22.23;11.63;;;;;;;3.52;77.51;98208.09;5142308;27;20027;-78
2023/03/08 02:46:35;;;;;;;19.97;10.60;;;;;;;3.50;77.33;98211.03;5140207;27;20291;-78
2023/03/08 02:49:00;;;;;;;15.27;9.85;;;;;;;3.45;76.81;98217.22;5140874;27;20258;-78
2023/03/08 02:51:25;;;;;;;16.90;10.05;;;;;;;3.45;77.21;98217.22;5140232;27;20030;-77
2023/03/08 02:53:51;;;;;;;19.73;11.43;;;;;;;3.51;77.39;98209.97;5141744;27;20031;-78
2023/03/08 02:56:16;;;;;;;14.98;10.13;;;;;;;3.45;76.96;98202.91;5140557;27;20248;-78
2023/03/08 02:58:41;;;;;;;19.20;11.32;;;;;;;3.45;77.59;98211.00;5141233;27;20042;-77
2023/03/08 03:01:13;;;;;;;16.50;9.73;;;;;;;3.49;77.33;98201.34;5142854;27;20033;-77
2023/03/08 03:03:40;;;;;;;17.95;9.63;;;;;;;3.49;77.13;98204.03;5141466;27;20275;-77
2023/03/08 03:06:12;;;;;;;17.48;10.90;;;;;;;3.48;77.36;98203.22;5142234;27;20049;-77
2023/03/08 03:08:37;;;;;;;16.35;9.52;;;;;;;3.47;76.93;98195.38;5138699;27;20431;-78
2023/03/08 03:11:10;;;;;;;23.60;11.30;;;;;;;3.44;77.84;98195.91;5142165;27;20042;-77
2023/03/08 03:13:35;;;;;;;23.38;10.63;;;;;;;3.39;77.66;98196.66;5141952;27;20333;-78
2023/03/08 03:16:06;;;;;;;18.70;10.40;;;;;;;3.35;77.58;98182.91;5142357;27;20905;-78
2023/03/08 03:18:32;;;;;;;18.13;11.02;;;;;;;3.30;78.19;98185.53;5139979;27;20254;-79
2023/03/08 03:21:05;;;;;;;14.67;9.63;;;;;;;3.37;78.30;98191.53;5140265;27;20039;-78
2023/03/08 03:23:30;;;;;;;26.08;11.93;;;;;;;3.36;78.22;98189.91;5139358;27;20299;-78
2023/03/08 03:25:55;;;;;;;19.35;12.27;;;;;;;3.38;77.41;98195.84;5141736;27;20103;-78
2023/03/08 03:28:20;;;;;;;25.00;10.40;;;;;;;3.43;78.19;98191.56;5139815;27;20030;-78
2023/03/08 03:30:46;;;;;;;16.23;9.80;;;;;;;3.47;77.71;98190.00;5141126;27;20031;-78
2023/03/08 03:33:12;;;;;;;16.63;10.68;;;;;;;3.43;77.90;98173.53;5141739;27;20609;-78
2023/03/08 03:35:38;;;;;;;19.42;10.60;;;;;;;3.41;77.75;98172.16;5140079;27;20561;-78
2023/03/08 03:38:03;;;;;;;17.08;9.15;;;;;;;3.40;78.07;98173.25;5141389;27;20496;-77
2023/03/08 03:40:28;;;;;;;18.43;10.17;;;;;;;3.36;77.94;98181.81;5141185;27;20069;-78
2023/03/08 03:42:53;;;;;;;18.73;9.43;;;;;;;3.38;77.56;98174.28;5140538;27;20296;-78
2023/03/08 03:45:19;;;;;;;23.53;10.47;;;;;;;3.40;77.91;98175.94;5140986;27;20413;-77
2023/03/08 03:47:44;;;;;;;19.80;9.60;;;;;;;3.45;77.40;98173.28;5139264;27;20290;-77
2023/03/08 03:50:10;;;;;;;14.60;8.88;;;;;;;3.45;76.96;98165.19;5141068;27;20034;-79
2023/03/08 03:52:35;;;;;;;22.35;10.38;;;;;;;3.42;77.48;98163.81;5139416;27;20039;-77
2023/03/08 03:55:00;;;;;;;15.90;9.33;;;;;;;3.43;77.17;98167.31;5139604;27;20031;-78
2023/03/08 03:57:25;;;;;;;19.02;10.50;;;;;;;3.47;77.44;98174.66;5141269;27;20318;-79
2023/03/08 03:59:51;;;;;;;20.00;11.25;;;;;;;3.43;77.40;98164.63;5140291;27;20027;-79
2023/03/08 04:02:16;;;;;;;18.13;9.48;;;;;;;3.37;77.00;98148.44;5139741;27;20026;-79
2023/03/08 04:04:41;;;;;;;15.93;10.07;;;;;;;3.38;77.77;98155.44;5140844;27;20404;-78
2023/03/08 04:07:06;;;;;;;22.10;12.60;;;;;;;3.43;77.62;98153.84;5138892;27;20243;-78
2023/03/08 04:09:32;;;;;;;19.27;9.70;;;;;;;3.42;77.87;98153.03;5138892;27;20254;-78
2023/03/08 04:12:01;;;;;;;22.60;11.75;;;;;;;3.40;77.59;98152.47;5141086;27;20831;-77
2023/03/08 04:14:26;;;;;;;18.35;11.93;;;;;;;3.32;77.64;98139.47;5139653;27;20619;-79
2023/03/08 04:16:52;;;;;;;20.92;10.15;;;;;;;3.37;77.78;98132.28;5139989;27;20028;-78
2023/03/08 04:19:17;;;;;;;18.33;11.02;;;;;;;3.37;78.29;98124.19;5137802;27;20038;-78
2023/03/08 04:21:42;;;;;;;21.85;12.38;;;;;;;3.31;77.98;98116.31;5140083;27;20041;-78
2023/03/08 04:24:07;;;;;;;19.70;11.00;;;;;;;3.37;78.19;98115.28;5139772;27;20499;-78
2023/03/08 04:26:33;;;;;;;20.60;11.30;;;;;;;3.33;77.88;98123.06;5139787;27;20405;-78
2023/03/08 04:28:59;;;;;;;21.60;11.23;;;;;;;3.43;78.05;98111.56;5139086;27;20278;-78
2023/03/08 04:31:27;;;;;;;21.33;12.07;;;;;;;3.37;77.98;98116.09;5139678;27;20037;-78
2023/03/08 04:33:53;;;;;;;20.02;12.57;;;;;;;3.38;77.92;98111.50;5140117;27;20038;-78
2023/03/08 04:36:19;;;;;;;21.60;12.13;;;;;;;3.40;77.51;98103.97;5139886;27;20146;-78
2023/03/08 04:38:45;;;;;;;15.30;9.52;;;;;;;3.35;78.14;98102.06;5140935;27;20042;-78
2023/03/08 04:41:12;;;;;;;21.88;11.90;;;;;;;3.31;78.23;98105.53;5138636;27;20031;-78
2023/03/08 04:43:39;;;;;;;19.45;10.57;;;;;;;3.32;77.99;98101.75;5138570;27;20026;-79
2023/03/08 04:46:05;;;;;;;23.48;10.88;;;;;;;3.35;78.00;98096.69;5139444;27;20280;-78
2023/03/08 04:48:31;;;;;;;22.27;11.82;;;;;;;3.34;77.69;98097.75;5138751;27;20034;-78
2023/03/08 04:50:59;;;;;;;22.00;12.30;;;;;;;3.36;77.68;98089.41;5138202;27;20368;-79
2023/03/08 04:53:26;;;;;;;22.60;11.88;;;;;;;3.32;77.95;98088.28;5139315;27;20092;-78
2023/03/08 04:55:52;;;;;;;19.65;9.40;;;;;;;3.29;78.18;98081.56;5137566;27;20066;-79
2023/03/08 04:58:18;;;;;;;18.13;9.23;;;;;;;3.29;77.76;98073.47;5136054;27;20051;-78
2023/03/08 05:00:43;;;;;;;20.55;10.63;;;;;;;3.28;78.06;98077.22;5136728;27;20035;-77
2023/03/08 05:03:09;;;;;;;15.85;8.43;;;;;;;3.30;77.87;98071.56;5135257;27;20523;-78
2023/03/08 05:05:35;;;;;;;18.27;9.90;;;;;;;3.29;78.23;98067.25;5145323;27;20035;-80
2023/03/08 05:08:04;;;;;;;17.55;9.75;;;;;;;3.31;78.23;98060.56;5146038;27;20624;-77
2023/03/08 05:10:31;;;;;;;20.70;10.63;;;;;;;3.32;77.36;98062.16;5144467;27;20027;-78
2023/03/08 05:12:56;;;;;;;17.30;11.20;;;;;;;3.32;78.01;98056.78;5144328;27;20049;-78
2023/03/08 05:15:24;;;;;;;23.85;11.77;;;;;;;3.33;77.79;98058.41;5145324;27;20433;-78
2023/03/08 05:17:50;;;;;;;18.80;10.85;;;;;;;3.35;77.62;98064.34;5145188;27;20146;-77
2023/03/08 05:20:16;;;;;;;19.63;9.98;;;;;;;3.36;78.02;98054.38;5144318;27;20114;-78
2023/03/08 05:22:41;;;;;;;17.30;10.02;;;;;;;3.25;77.96;98051.59;5146821;27;20106;-79
2023/03/08 05:25:07;;;;;;;17.90;10.30;;;;;;;3.26;78.06;98042.47;5145329;27;20130;-79
2023/03/08 05:27:34;;;;;;;21.92;11.55;;;;;;;3.17;77.92;98051.28;5146457;27;20626;-79
2023/03/08 05:29:59;;;;;;;15.25;9.32;;;;;;;3.15;78.44;98038.09;5144006;27;20027;-77
2023/03/08 05:32:24;;;;;;;21.20;9.85;;;;;;;3.20;78.62;98037.28;5146846;27;20037;-78
2023/03/08 05:34:52;;;;;;;18.65;9.35;;;;;;;3.22;77.96;98043.22;5147129;27;20479;-79
2023/03/08 05:37:17;;;;;;;21.48;12.02;;;;;;;3.20;78.61;98038.09;5147816;27;20041;-86
2023/03/08 05:39:42;;;;;;;19.75;10.77;;;;;;;3.20;78.43;98037.28;5145406;27;20030;-79
2023/03/08 05:42:08;;;;;;;21.40;9.77;;;;;;;3.11;78.63;98032.38;5145695;27;20441;-78
2023/03/08 05:44:34;;;;;;;14.48;8.38;;;;;;;3.05;78.94;98022.66;5146050;27;20106;-79
2023/03/08 05:47:00;;;;;;;18.48;10.73;;;;;;;3.13;78.68;98019.47;5145796;27;20039;-79
2023/03/08 05:49:25;;;;;;;16.83;10.32;;;;;;;3.10;78.85;98014.63;5145491;27;20042;-78
2023/03/08 05:51:50;;;;;;;16.15;8.38;;;;;;;3.09;78.75;98012.19;5145337;27;20027;-78
2023/03/08 05:54:16;;;;;;;12.45;6.93;;;;;;;3.06;78.60;98012.69;5142702;27;20034;-77
2023/03/08 05:56:41;;;;;;;9.80;5.93;;;;;;;2.85;78.50;98002.56;5147836;27;20054;-77
2023/03/08 05:59:06;;;;;;;30.73;5.73;;;;;;;2.87;78.56;98002.31;5144920;27;20035;-79
2023/03/08 06:01:32;;;;;;;13.98;6.15;;;;;;;2.85;78.27;97989.09;5144831;27;20720;-80
2023/03/08 06:03:57;;;;;;;10.30;5.13;;;;;;;2.68;78.69;97992.75;5144587;27;20772;-79
2023/03/08 06:06:25;;;;;;;12.05;5.50;;;;;;;2.56;79.19;97984.06;5144285;27;20038;-79
2023/03/08 06:08:51;;;;;;;9.18;4.90;;;;;;;2.57;79.13;97980.28;5146511;27;20440;-77
2023/03/08 06:11:17;;;;;;;12.93;5.60;;;;;;;2.44;78.57;97974.25;5147520;27;20031;-79
2023/03/08 06:13:42;;;;;;;12.20;4.43;;;;;;;2.45;79.23;97981.25;5145669;27;20026;-78
2023/03/08 06:16:08;;;;;;;10.50;4.53;;;;;;;2.54;79.27;97975.41;5143912;27;20062;-78
2023/03/08 06:18:38;;;;;;;9.07;3.75;;;;;;;2.47;78.76;97970.25;5138457;27;20039;-78
2023/03/08 06:21:06;;;;;;;5.78;1.98;;;;;;;2.54;78.78;97970.03;5139824;27;20035;-78
2023/03/08 06:23:33;;;;;;;11.45;3.92;;;;;;;2.53;79.04;97958.47;5141967;27;20033;-80
2023/03/08 06:25:58;;;;;;;6.50;3.08;;;;;;;2.54;78.34;97970.03;5142263;27;20038;-79
2023/03/08 06:28:26;;;;;;;6.05;3.08;;;;;;;2.48;78.98;97960.28;5141930;27;20041;-79
2023/03/08 06:30:51;;;;;;;8.18;4.18;;;;;;;2.40;79.01;97956.97;5141754;27;20136;-78
2023/03/08 06:33:19;;;;;;;7.22;3.78;;;;;;;2.31;79.22;97945.06;5143828;27;20424;-77
2023/03/08 06:36:01;;;;;;;7.97;3.70;;;;;;;2.14;80.06;97950.56;5143530;27;20094;-79
2023/03/08 06:38:29;;;;;;;9.43;4.57;;;;;;;2.17;80.31;97945.50;5142737;27;20035;-79
2023/03/08 06:40:54;;;;;;;7.18;3.75;;;;;;;1.96;80.71;97936.41;5139989;27;20099;-78
2023/03/08 06:43:20;;;;;;;9.73;4.32;;;;;;;1.87;81.69;97928.00;5142913;27;20102;-78
2023/03/08 06:45:45;;;;;;;7.95;2.78;;;;;;;1.82;81.04;97931.44;5142167;27;20030;-78
2023/03/08 06:48:11;;;;;;;8.02;3.78;;;;;;;1.96;81.63;97929.16;5141000;27;20035;-80
2023/03/08 06:50:36;;;;;;;6.60;3.42;;;;;;;2.04;81.62;97924.38;5142104;27;20087;-79
2023/03/08 06:53:01;;;;;;;6.43;3.40;;;;;;;2.02;80.76;97910.38;5140099;27;20477;-80
2023/03/08 06:55:27;;;;;;;9.07;4.47;;;;;;;1.98;81.50;97910.91;5143123;27;20257;-78
2023/03/08 06:57:54;;;;;;;6.95;3.30;;;;;;;1.99;81.63;97903.66;5139603;27;20090;-79
2023/03/08 07:00:20;;;;;;;7.50;2.80;;;;;;;2.05;80.86;97909.88;5142314;27;20058;-77
2023/03/08 07:02:47;;;;;;;7.82;3.65;;;;;;;2.26;81.07;97910.09;5140053;27;20027;-78
2023/03/08 07:05:13;;;;;;;13.20;3.42;;;;;;;2.09;81.02;97906.44;5142350;27;20039;-78
2023/03/08 07:07:38;;;;;;;5.80;3.28;;;;;;;2.15;81.17;97903.78;5141868;27;20134;-81
2023/03/08 07:10:04;;;;;;;4.75;2.70;;;;;;;2.09;80.69;97895.69;5140094;27;20464;-79
2023/03/08 07:12:31;;;;;;;6.05;2.13;;;;;;;2.15;80.46;97893.84;5142502;27;20038;-77
2023/03/08 07:14:56;;;;;;;6.00;2.95;;;;;;;2.09;80.68;97900.25;5142071;27;20035;-77
2023/03/08 07:17:22;;;;;;;8.32;2.97;;;;;;;2.14;80.96;97892.22;5143504;27;20535;-76
2023/03/08 07:19:47;;;;;;;5.37;2.70;;;;;;;2.28;80.22;97886.44;5139390;27;20498;-77
2023/03/08 07:22:12;;;;;;;5.23;2.90;;;;;;;2.15;80.30;97883.09;5140399;27;20258;-77
2023/03/08 07:24:38;;;;;;;3.97;1.98;;;;;;;2.27;80.06;97874.03;5141992;27;20251;-77
2023/03/08 07:27:04;;;;;;;4.90;1.15;;;;;;;2.21;79.63;97879.38;5141538;27;20039;-80
2023/03/08 07:29:29;;;;;;;4.97;1.65;;;;;;;2.25;79.59;97889.63;5140971;27;20062;-78
2023/03/08 07:31:54;;;;;;;3.45;1.70;;;;;;;2.16;79.93;97873.94;5141344;27;20056;-78
2023/03/08 07:34:19;;;;;;;4.10;1.48;;;;;;;2.39;80.01;97863.09;5139833;27;20040;-78
2023/03/08 07:36:45;;;;;;;2.03;1.40;;;;;;;2.29;78.76;97866.53;5140641;27;20422;-79
2023/03/08 07:39:10;;;;;;;5.28;1.20;;;;;;;2.29;79.26;97866.53;5139940;27;20042;-78
2023/03/08 07:41:35;;;;;;;5.10;1.50;;;;;;;2.20;79.65;97864.31;5141198;27;20037;-78
2023/03/08 07:44:01;;;;;;;3.42;1.92;;;;;;;2.34;79.03;97863.88;5140524;27;20026;-78
2023/03/08 07:46:27;;;;;;;2.03;1.00;;;;;;;2.42;78.58;97852.63;5142617;27;20444;-78
2023/03/08 07:48:52;;;;;;;3.40;1.60;;;;;;;2.42;78.51;97859.91;5139363;27;20446;-78
2023/03/08 07:51:18;;;;;;;4.18;1.20;;;;;;;2.31;78.15;97865.22;5141168;27;20035;-81
2023/03/08 07:53:43;;;;;;;3.75;1.90;;;;;;;2.37;78.72;97857.97;5140992;27;20388;-78
2023/03/08 07:56:09;;;;;;;3.83;1.60;;;;;;;2.21;78.98;97865.94;5139801;27;20526;-79
2023/03/08 07:58:34;;;;;;;3.80;1.70;;;;;;;2.43;78.54;97856.97;5141121;27;20267;-78
2023/03/08 08:00:59;;;;;;;2.63;1.58;;;;;;;2.44;78.83;97847.81;5139257;27;20490;-80
2023/03/08 08:03:28;;;;;;;4.20;1.70;;;;;;;2.58;78.60;97847.38;5140164;27;20113;-78
2023/03/08 08:05:53;;;;;;;5.22;1.90;;;;;;;2.65;77.74;97842.56;5142595;27;20027;-78
2023/03/08 08:08:18;;;;;;;2.30;1.43;;;;;;;2.53;78.30;97833.88;5140868;27;20030;-79
2023/03/08 08:10:44;;;;;;;3.38;0.90;;;;;;;2.53;78.28;97831.19;5142579;27;20315;-79
2023/03/08 08:13:09;;;;;;;2.92;1.45;;;;;;;2.52;78.49;97827.69;5140417;27;20029;-79
2023/03/08 08:15:35;;;;;;;3.88;1.40;;;;;;;2.62;78.02;97812.69;5140624;27;20265;-79
2023/03/08 08:18:00;;;;;;;2.85;1.00;;;;;;;2.55;78.32;97815.59;5140307;27;20076;-79
2023/03/08 08:20:26;;;;;;;2.85;0.82;;;;;;;2.59;78.24;97816.69;5138975;27;20046;-77
2023/03/08 08:22:52;;;;;;;2.38;1.15;;;;;;;2.58;78.23;97804.31;5142703;27;20030;-80
2023/03/08 08:25:19;;;;;;;1.85;1.17;;;;;;;2.19;78.98;97803.53;5140425;27;20046;-77
2023/03/08 08:27:44;;;;;;;3.08;1.00;;;;;;;2.24;79.72;97805.44;5139117;27;20110;-77
2023/03/08 08:30:12;;;;;;;4.60;2.13;;;;;;;2.49;79.53;97800.47;5141542;27;20110;-78
2023/03/08 08:32:37;;;;;;;3.28;1.33;;;;;;;2.48;78.42;97798.88;5141825;27;20031;-78
2023/03/08 08:35:03;;;;;;;2.47;1.05;;;;;;;2.37;79.32;97788.06;5139781;27;20111;-77
2023/03/08 08:37:30;;;;;;;1.85;0.93;;;;;;;2.58;79.48;97793.56;5138307;27;20084;-77
2023/03/08 08:39:55;;;;;;;2.78;1.33;;;;;;;2.71;78.59;97781.50;5141178;27;20035;-77
2023/03/08 08:42:20;;;;;;;2.97;0.90;;;;;;;2.71;78.62;97776.13;5139079;27;20079;-76
2023/03/08 08:44:46;;;;;;;4.87;1.23;;;;;;;2.69;78.33;97770.19;5138602;27;20266;-77
2023/03/08 08:47:11;;;;;;;2.47;1.13;;;;;;;2.62;78.59;97762.38;5136732;27;20774;-77
2023/03/08 08:49:36;;;;;;;1.37;0.90;;;;;;;2.72;78.36;97760.78;5137228;27;20250;-85
2023/03/08 08:52:02;;;;;;;2.88;1.17;;;;;;;2.62;78.89;97761.56;5146506;27;20251;-77
2023/03/08 08:54:27;;;;;;;1.65;0.95;;;;;;;2.78;79.15;97751.66;5140631;27;20589;-79
2023/03/08 08:56:52;;;;;;;3.30;1.20;;;;;;;2.84;78.56;97747.94;5140477;27;20053;-78
2023/03/08 08:59:18;;;;;;;3.45;1.30;;;;;;;2.84;78.04;97747.94;5138437;27;20046;-77
2023/03/08 09:01:43;;;;;;;3.20;1.33;;;;;;;2.78;78.20;97744.41;5141172;27;20031;-77
2023/03/08 09:04:10;;;;;;;3.85;1.23;;;;;;;2.78;77.81;97740.91;5139787;27;20399;-78
2023/03/08 09:06:36;;;;;;;2.72;1.02;;;;;;;2.75;78.18;97747.63;5139755;27;20506;-77
2023/03/08 09:09:02;;;;;;;3.13;1.33;;;;;;;2.77;78.50;97739.28;5138118;27;20035;-76
2023/03/08 09:11:27;;;;;;;2.65;1.27;;;;;;;2.71;78.56;97735.75;5141553;27;20038;-77
2023/03/08 09:13:53;;;;;;;3.88;2.05;;;;;;;2.80;78.21;97736.06;5140443;27;20472;-78
2023/03/08 09:16:31;;;;;;;2.40;1.40;;;;;;;2.83;78.19;97734.75;5139135;27;20411;-78
2023/03/08 09:19:01;;;;;;;3.10;1.77;;;;;;;2.81;78.55;97732.28;5137598;27;20039;-79
2023/03/08 09:21:28;;;;;;;7.95;1.85;;;;;;;2.86;78.59;97712.66;5138591;27;20146;-78
2023/03/08 09:23:54;;;;;;;4.20;2.00;;;;;;;2.89;78.55;97707.56;5138826;27;20170;-78
2023/03/08 09:26:20;;;;;;;6.53;2.17;;;;;;;2.54;79.53;97701.78;5139315;27;20465;-78
2023/03/08 09:28:45;;;;;;;5.53;2.78;;;;;;;2.68;79.15;97704.78;5136109;27;20044;-77
2023/03/08 09:31:16;;;;;;;4.63;1.92;;;;;;;2.74;79.23;97707.50;5138690;27;20026;-78
2023/03/08 09:33:47;;;;;;;4.60;2.08;;;;;;;2.78;79.10;97700.53;5138035;27;20025;-77
2023/03/08 09:36:12;;;;;;;4.55;2.22;;;;;;;2.72;78.68;97709.66;5139762;27;20027;-77
2023/03/08 09:38:38;;;;;;;5.70;1.95;;;;;;;2.78;78.77;97698.66;5139303;27;20033;-77
2023/03/08 09:41:20;;;;;;;3.67;1.75;;;;;;;2.76;78.37;97694.59;5139888;27;20026;-78
2023/03/08 09:44:08;;;;;;;2.97;1.80;;;;;;;2.63;79.29;97698.59;5139415;27;20519;-77
2023/03/08 09:46:39;;;;;;;3.97;1.50;;;;;;;2.61;78.35;97706.94;5139981;27;20368;-77
2023/03/08 09:49:13;;;;;;;2.95;1.65;;;;;;;2.73;78.91;97697.81;5136309;27;20041;-77
2023/03/08 09:51:43;;;;;;;5.90;2.92;;;;;;;2.73;79.54;97690.53;5140630;27;20027;-77
2023/03/08 09:54:16;;;;;;;9.65;3.25;;;;;;;2.67;79.65;97700.50;5143071;27;20030;-78
2023/03/08 09:56:46;;;;;;;12.85;6.53;;;;;;;2.77;79.41;97698.91;5141234;27;20047;-77
2023/03/08 09:59:27;;;;;;;7.68;4.40;;;;;;;2.88;79.55;97684.41;5141786;27;20062;-77
2023/03/08 10:02:03;;;;;;;11.95;6.20;;;;;;;2.99;78.57;97684.44;5143230;27;20121;-78
2023/03/08 10:04:48;;;;;;;6.88;2.58;;;;;;;2.85;78.87;97673.38;5141169;27;20108;-78
2023/03/08 10:07:18;;;;;;;;;;;;;;;2.94;78.54;97673.66;5143406;27;20480;-78
2023/03/08 10:10:24;;;;;;;9.35;4.40;;;;;;;2.88;79.16;97676.34;5140924;27;20564;-78
2023/03/08 10:12:57;;;;;;;8.73;3.42;;;;;;;2.85;78.77;97673.38;5131575;27;20387;-79
2023/03/08 10:15:25;;;;;;;6.17;3.43;;;;;;;2.89;78.63;97669.88;5143719;27;20133;-79
2023/03/08 10:18:04;;;;;;;4.57;1.90;;;;;;;2.96;78.85;97664.25;5143135;27;20075;-78
2023/03/08 10:20:33;;;;;;;4.25;2.13;;;;;;;2.80;79.22;97661.53;5143181;27;20027;-78
2023/03/08 10:23:05;;;;;;;3.28;1.83;;;;;;;2.97;78.94;97670.44;5142741;27;20031;-77
2023/03/08 10:25:33;;;;;;;5.55;2.85;;;;;;;3.02;78.27;97662.38;5141312;27;20027;-77
2023/03/08 10:28:02;;;;;;;7.47;3.20;;;;;;;3.05;77.44;97667.22;5141063;27;20029;-78
2023/03/08 10:30:33;;;;;;;4.57;2.33;;;;;;;2.86;78.34;97654.25;5140280;27;20031;-78
2023/03/08 10:33:03;;;;;;;4.15;2.00;;;;;;;2.95;78.87;97659.13;5142581;27;20447;-78
2023/03/08 10:35:57;;;;;;;3.67;2.28;;;;;;;3.00;77.91;97651.06;5143440;27;20050;-77
2023/03/08 10:38:26;;;;;;;4.93;2.25;;;;;;;2.83;78.52;97662.84;5103310;27;20042;-79
2023/03/08 10:41:03;;;;;;;7.78;2.63;;;;;;;3.01;78.87;97650.00;5142529;27;20051;-78
2023/03/08 10:43:44;;;;;;;3.92;1.83;;;;;;;2.97;78.68;97633.53;5142991;27;20027;-77
2023/03/08 10:46:16;;;;;;;5.05;2.00;;;;;;;3.04;79.00;97638.66;5142667;27;20448;-78
2023/03/08 10:48:42;;;;;;;4.63;1.70;;;;;;;2.94;78.92;97627.88;5140949;27;20114;-78
2023/03/08 10:51:25;;;;;;;2.28;1.60;;;;;;;2.99;79.01;97626.00;5140589;27;20467;-76
2023/03/08 10:53:55;;;;;;;3.53;1.73;;;;;;;3.17;78.49;97606.91;5141939;27;20031;-83
2023/03/08 10:56:43;;;;;;;5.78;1.80;;;;;;;3.18;78.56;97597.75;5141892;27;20086;-79
2023/03/08 10:59:34;;;;;;;2.75;1.88;;;;;;;3.25;78.01;97604.47;5140678;27;20035;-82
2023/03/08 11:02:11;;;;;;;2.83;1.42;;;;;;;3.30;77.79;97611.75;5140903;27;20106;-80
2023/03/08 11:04:36;;;;;;;2.63;1.58;;;;;;;3.35;78.24;97611.75;5141528;27;20035;-80
2023/03/08 11:07:22;;;;;;;2.65;1.10;;;;;;;3.35;78.15;97614.47;5140885;27;20027;-79
2023/03/08 11:09:48;;;;;;;5.38;2.83;;;;;;;3.31;78.09;97610.69;5140585;27;20030;-79
2023/03/08 11:12:25;;;;;;;3.33;1.77;;;;;;;3.37;78.14;97604.22;5142310;27;20035;-80
2023/03/08 11:14:51;;;;;;;7.40;3.08;;;;;;;3.34;77.82;97602.06;5140787;27;20033;-80
2023/03/08 11:17:27;;;;;;;6.05;3.75;;;;;;;3.41;77.77;97615.25;5141400;27;20030;-79
2023/03/08 11:20:17;;;;;;;6.07;3.33;;;;;;;3.43;78.42;97623.06;5140550;27;20027;-81
2023/03/08 11:23:06;;;;;;;3.95;2.45;;;;;;;3.42;78.41;97614.16;5140244;27;20506;-82
2023/03/08 11:25:45;;;;;;;5.68;2.85;;;;;;;3.37;78.75;97609.63;5131764;27;20069;-81
2023/03/08 11:28:44;;;;;;;5.97;2.80;;;;;;;3.41;78.65;97611.75;5140340;27;20719;-83
2023/03/08 11:31:15;;;;;;;9.98;3.55;;;;;;;3.35;78.29;97609.06;5141526;27;20066;-82
2023/03/08 11:33:53;;;;;;;6.43;3.05;;;;;;;3.38;78.63;97603.13;5141444;27;20031;-82
2023/03/08 11:36:39;;;;;;;6.50;2.78;;;;;;;3.26;78.62;97605.28;5141180;27;20058;-82
2023/03/08 11:39:13;;;;;;;4.80;2.70;;;;;;;3.37;78.45;97609.63;5138181;27;20395;-81